Time;durP1;ratioP1;P1;durP2;ratioP2;P2;SDS_P1;SDS_P2;PMS_P1;PMS_P2;Temp;Humidity;BMP_temperature;BMP_pressure;BME280_temperature;BME280_humidity;BME280_pressure;Samples;Min_cycle;Max_cycle;Signal;HPM_P1;HPM_P2
2022/07/14 00:01:11;;;;;;;;;;;;;;;;;;2201829;67;1921;-73
2022/07/14 00:03:44;;;;;;;;;;;;;;;;;;2202969;59;1225;-72
2022/07/14 00:06:17;;;;;;;;;;;;;;;;;;2202431;67;1241;-73
2022/07/14 00:08:50;;;;;;;;;;;;;;;;;;2202661;59;1292;-73
2022/07/14 00:11:23;;;;;;;;;;;;;;;;;;2202763;59;1265;-73
2022/07/14 00:13:58;;;;;;;;;;;;;;;;;;2202008;67;1146;-73
2022/07/14 00:16:34;;;;;;;;;;;;;;;;;;2202169;67;1169;-73
2022/07/14 00:19:07;;;;;;;;;;;;;;;;;;2202122;67;1242;-73
2022/07/14 00:21:40;;;;;;;;;;;;;;;;;;2202795;67;1924;-73
2022/07/14 00:24:13;;;;;;;;;;;;;;;;;;2202487;67;1178;-73
2022/07/14 00:26:46;;;;;;;;;;;;;;;;;;2202943;67;1178;-73
2022/07/14 00:29:20;;;;;;;;;;;;;;;;;;2201946;59;1252;-73
2022/07/14 00:31:55;;;;;;;;;;;;;;;;;;2202313;67;2013;-73
2022/07/14 00:34:28;;;;;;;;;;;;;;;;;;2202603;67;1251;-73
2022/07/14 00:37:02;;;;;;;;;;;;;;;;;;2202286;67;1142;-72
2022/07/14 00:42:29;;;;;;;;;;;;;;;;;;2201907;59;2044;-73
2022/07/14 00:45:03;;;;;;;;;;;;;;;;;;2202185;67;1154;-73
2022/07/14 00:47:39;;;;;;;;;;;;;;;;;;2199062;59;1273;-74
2022/07/14 00:50:13;;;;;;;;;;;;;;;;;;2201778;59;1240;-73
2022/07/14 00:52:47;;;;;;;;;;;;;;;;;;2202172;67;1232;-73
2022/07/14 00:55:21;;;;;;;;;;;;;;;;;;2202278;67;1194;-73
2022/07/14 00:57:54;;;;;;;;;;;;;;;;;;2202120;59;1340;-73
2022/07/14 01:00:27;;;;;;;;;;;;;;;;;;2202158;59;1095;-73
2022/07/14 01:03:05;;;;;;;;;;;;;;;;;;2202353;59;1182;-73
2022/07/14 01:05:38;;;;;;;;;;;;;;;;;;2202355;67;1184;-73
2022/07/14 01:08:11;;;;;;;;;;;;;;;;;;2201844;67;1202;-73
2022/07/14 01:10:44;;;;;;;;;;;;;;;;;;2202297;67;1181;-73
2022/07/14 01:13:18;;;;;;;;;;;;;;;;;;2199126;59;1279;-73
2022/07/14 01:15:51;;;;;;;;;;;;;;;;;;2202301;59;1307;-73
2022/07/14 01:18:27;;;;;;;;;;;;;;;;;;2202421;67;1267;-73
2022/07/14 01:21:00;;;;;;;;;;;;;;;;;;2202344;67;1933;-73
2022/07/14 01:23:36;;;;;;;;;;;;;;;;;;2202938;67;1181;-73
2022/07/14 01:26:09;;;;;;;;;;;;;;;;;;2202525;67;1454;-73
2022/07/14 01:28:42;;;;;;;;;;;;;;;;;;2203996;67;1124;-74
2022/07/14 01:31:15;;;;;;;;;;;;;;;;;;2202902;59;1977;-73
2022/07/14 01:33:48;;;;;;;;;;;;;;;;;;2203890;67;1099;-73
2022/07/14 01:36:22;;;;;;;;;;;;;;;;;;2204193;59;1207;-73
2022/07/14 01:38:57;;;;;;;;;;;;;;;;;;2203347;67;1220;-73
2022/07/14 01:41:31;;;;;;;;;;;;;;;;;;2202826;59;2035;-73
2022/07/14 01:44:04;;;;;;;;;;;;;;;;;;2204071;67;1169;-73
2022/07/14 01:46:37;;;;;;;;;;;;;;;;;;2199314;67;2387;-73
2022/07/14 01:49:10;;;;;;;;;;;;;;;;;;2203272;67;1156;-73
2022/07/14 01:51:44;;;;;;;;;;;;;;;;;;2203225;67;1102;-73
2022/07/14 01:54:20;;;;;;;;;;;;;;;;;;2203178;59;1278;-73
2022/07/14 01:56:53;;;;;;;;;;;;;;;;;;2203649;67;1205;-73
2022/07/14 01:59:26;;;;;;;;;;;;;;;;;;2203289;67;1197;-73
2022/07/14 02:01:59;;;;;;;;;;;;;;;;;;2203442;67;1936;-73
2022/07/14 02:04:32;;;;;;;;;;;;;;;;;;2203569;59;1178;-73
2022/07/14 02:07:05;;;;;;;;;;;;;;;;;;2202910;67;1221;-73
2022/07/14 02:12:32;;;;;;;;;;;;;;;;;;2198210;59;1357;-73
2022/07/14 02:15:06;;;;;;;;;;;;;;;;;;2203203;67;1225;-73
2022/07/14 02:17:39;;;;;;;;;;;;;;;;;;2198824;67;1430;-74
2022/07/14 02:20:13;;;;;;;;;;;;;;;;;;2203349;59;1316;-73
2022/07/14 02:22:46;;;;;;;;;;;;;;;;;;2203364;59;1920;-73
2022/07/14 02:25:22;;;;;;;;;;;;;;;;;;2203463;67;1197;-73
2022/07/14 02:27:55;;;;;;;;;;;;;;;;;;2203021;67;1348;-73
2022/07/14 02:30:28;;;;;;;;;;;;;;;;;;2202673;59;2140;-73
2022/07/14 02:33:01;;;;;;;;;;;;;;;;;;2202735;67;1165;-73
2022/07/14 02:35:34;;;;;;;;;;;;;;;;;;2200054;67;1929;-73
2022/07/14 02:38:08;;;;;;;;;;;;;;;;;;2203285;67;1268;-73
2022/07/14 02:40:44;;;;;;;;;;;;;;;;;;2202632;59;2027;-73
2022/07/14 02:43:17;;;;;;;;;;;;;;;;;;2202463;67;1984;-74
2022/07/14 02:45:50;;;;;;;;;;;;;;;;;;2198537;67;1197;-73
2022/07/14 02:48:23;;;;;;;;;;;;;;;;;;2202567;59;1259;-73
2022/07/14 02:51:00;;;;;;;;;;;;;;;;;;2202030;59;1264;-73
2022/07/14 02:53:34;;;;;;;;;;;;;;;;;;2202466;59;1265;-73
2022/07/14 02:56:10;;;;;;;;;;;;;;;;;;2202879;67;1179;-73
2022/07/14 02:58:43;;;;;;;;;;;;;;;;;;2202278;60;1147;-73
2022/07/14 03:01:17;;;;;;;;;;;;;;;;;;2202031;67;1939;-73
2022/07/14 03:03:50;;;;;;;;;;;;;;;;;;2201672;59;2505;-73
2022/07/14 03:06:23;;;;;;;;;;;;;;;;;;2202426;59;1233;-73
2022/07/14 03:08:56;;;;;;;;;;;;;;;;;;2202097;59;1291;-74
2022/07/14 03:11:32;;;;;;;;;;;;;;;;;;2202481;59;1326;-73
2022/07/14 03:14:05;;;;;;;;;;;;;;;;;;2201775;59;1208;-73
2022/07/14 03:16:38;;;;;;;;;;;;;;;;;;2201978;67;1124;-73
2022/07/14 03:19:11;;;;;;;;;;;;;;;;;;2202579;67;1337;-73
2022/07/14 03:21:44;;;;;;;;;;;;;;;;;;2202000;59;1936;-73
2022/07/14 03:24:18;;;;;;;;;;;;;;;;;;2202023;67;1149;-73
2022/07/14 03:26:54;;;;;;;;;;;;;;;;;;2202079;67;1178;-73
2022/07/14 03:29:27;;;;;;;;;;;;;;;;;;2201902;67;1228;-73
2022/07/14 03:32:00;;;;;;;;;;;;;;;;;;2201137;59;2080;-73
2022/07/14 03:34:34;;;;;;;;;;;;;;;;;;2202697;67;1030;-73
2022/07/14 03:37:07;;;;;;;;;;;;;;;;;;2201653;59;1304;-73
2022/07/14 03:39:40;;;;;;;;;;;;;;;;;;2201304;59;1991;-73
2022/07/14 03:42:16;;;;;;;;;;;;;;;;;;2202433;59;1996;-73
2022/07/14 03:44:49;;;;;;;;;;;;;;;;;;2201810;67;1189;-73
2022/07/14 03:47:22;;;;;;;;;;;;;;;;;;2201772;60;1229;-72
2022/07/14 03:58:00;;;;;;;;;;;;;;;;;;2403310;53;1843;-73
2022/07/14 04:00:33;;;;;;;;;;;;;;;;;;2200736;67;2346;-73
2022/07/14 04:03:07;;;;;;;;;;;;;;;;;;2201194;59;1995;-73
2022/07/14 04:05:40;;;;;;;;;;;;;;;;;;2202583;59;2324;-73
2022/07/14 04:08:13;;;;;;;;;;;;;;;;;;2202631;59;1238;-73
2022/07/14 04:10:46;;;;;;;;;;;;;;;;;;2199436;59;2147;-73
2022/07/14 04:13:22;;;;;;;;;;;;;;;;;;2202926;59;1264;-73
2022/07/14 04:15:55;;;;;;;;;;;;;;;;;;2202310;67;1323;-73
2022/07/14 04:18:29;;;;;;;;;;;;;;;;;;2203445;67;1261;-73
2022/07/14 04:21:02;;;;;;;;;;;;;;;;;;2202684;59;1256;-73
2022/07/14 04:23:35;;;;;;;;;;;;;;;;;;2201688;59;2105;-73
2022/07/14 04:26:09;;;;;;;;;;;;;;;;;;2202534;67;1137;-73
2022/07/14 04:28:44;;;;;;;;;;;;;;;;;;2202683;67;1231;-74
2022/07/14 04:31:18;;;;;;;;;;;;;;;;;;2202259;59;1849;-74
2022/07/14 04:33:51;;;;;;;;;;;;;;;;;;2202922;60;1177;-73
2022/07/14 04:36:25;;;;;;;;;;;;;;;;;;2203344;67;1206;-72
2022/07/14 04:38:58;;;;;;;;;;;;;;;;;;2202425;59;1620;-73
2022/07/14 04:41:31;;;;;;;;;;;;;;;;;;2198968;59;2163;-73
2022/07/14 04:44:07;;;;;;;;;;;;;;;;;;2202373;67;1925;-73
2022/07/14 04:46:40;;;;;;;;;;;;;;;;;;2202880;67;1113;-73
2022/07/14 04:52:05;;;;;;;;;;;;;;;;;;2202911;59;1169;-73
2022/07/14 04:54:38;;;;;;;;;;;;;;;;;;2203138;67;1241;-73
2022/07/14 04:57:11;;;;;;;;;;;;;;;;;;2202680;67;1082;-73
2022/07/14 04:59:47;;;;;;;;;;;;;;;;;;2202844;59;1187;-73
2022/07/14 05:02:21;;;;;;;;;;;;;;;;;;2203066;67;1985;-73
2022/07/14 05:04:54;;;;;;;;;;;;;;;;;;2203397;67;1173;-73
2022/07/14 05:07:27;;;;;;;;;;;;;;;;;;2203722;67;1244;-73
2022/07/14 05:10:00;;;;;;;;;;;;;;;;;;2202703;67;1243;-73
2022/07/14 05:12:33;;;;;;;;;;;;;;;;;;2203139;59;1375;-73
2022/07/14 05:15:10;;;;;;;;;;;;;;;;;;2202906;67;1124;-73
2022/07/14 05:17:44;;;;;;;;;;;;;;;;;;2202805;67;1154;-73
2022/07/14 05:20:17;;;;;;;;;;;;;;;;;;2203045;67;1222;-73
2022/07/14 05:22:51;;;;;;;;;;;;;;;;;;2202887;67;1933;-73
2022/07/14 05:25:24;;;;;;;;;;;;;;;;;;2202968;67;1113;-73
2022/07/14 05:27:57;;;;;;;;;;;;;;;;;;2202821;59;1172;-73
2022/07/14 05:30:33;;;;;;;;;;;;;;;;;;2202689;59;1930;-74
2022/07/14 05:33:07;;;;;;;;;;;;;;;;;;2202157;67;1084;-74
2022/07/14 05:35:40;;;;;;;;;;;;;;;;;;2199561;67;2115;-73
2022/07/14 05:38:13;;;;;;;;;;;;;;;;;;2203195;67;1222;-73
2022/07/14 05:40:47;;;;;;;;;;;;;;;;;;2202934;59;1969;-73
2022/07/14 05:43:20;;;;;;;;;;;;;;;;;;2202689;67;1929;-73
2022/07/14 05:45:56;;;;;;;;;;;;;;;;;;2202793;59;1188;-74
2022/07/14 05:48:29;;;;;;;;;;;;;;;;;;2203005;67;1140;-73
2022/07/14 05:51:06;;;;;;;;;;;;;;;;;;2203276;67;1203;-73
2022/07/14 05:53:39;;;;;;;;;;;;;;;;;;2204006;67;1109;-72
2022/07/14 05:56:13;;;;;;;;;;;;;;;;;;2203344;59;1239;-73
2022/07/14 05:58:46;;;;;;;;;;;;;;;;;;2203857;59;1189;-73
2022/07/14 06:01:23;;;;;;;;;;;;;;;;;;2203110;67;3204;-73
2022/07/14 06:03:57;;;;;;;;;;;;;;;;;;2203139;59;1971;-74
2022/07/14 06:06:30;;;;;;;;;;;;;;;;;;2199383;67;2307;-73
2022/07/14 06:09:04;;;;;;;;;;;;;;;;;;2203050;67;1235;-73
2022/07/14 06:11:39;;;;;;;;;;;;;;;;;;2203271;59;1252;-74
2022/07/14 06:14:13;;;;;;;;;;;;;;;;;;2202824;67;1115;-73
2022/07/14 06:16:50;;;;;;;;;;;;;;;;;;2203182;67;1063;-73
2022/07/14 06:19:23;;;;;;;;;;;;;;;;;;2203158;67;1272;-73
2022/07/14 06:21:56;;;;;;;;;;;;;;;;;;2203068;67;1220;-74
2022/07/14 06:24:29;;;;;;;;;;;;;;;;;;2202826;60;1928;-74
2022/07/14 06:27:02;;;;;;;;;;;;;;;;;;2202744;67;1160;-73
2022/07/14 06:29:35;;;;;;;;;;;;;;;;;;2203183;67;1251;-73
2022/07/14 06:32:11;;;;;;;;;;;;;;;;;;2203191;59;2059;-73
2022/07/14 06:34:45;;;;;;;;;;;;;;;;;;2203499;67;1153;-73
2022/07/14 06:37:18;;;;;;;;;;;;;;;;;;2202826;59;1319;-73
2022/07/14 06:39:51;;;;;;;;;;;;;;;;;;2203082;67;1300;-73
2022/07/14 06:42:24;;;;;;;;;;;;;;;;;;2202742;59;2059;-74
2022/07/14 06:44:58;;;;;;;;;;;;;;;;;;2203086;67;1133;-74
2022/07/14 06:47:34;;;;;;;;;;;;;;;;;;2202178;67;1123;-74
2022/07/14 06:50:07;;;;;;;;;;;;;;;;;;2202298;59;1247;-74
2022/07/14 06:52:40;;;;;;;;;;;;;;;;;;2202967;67;1124;-75
2022/07/14 06:55:14;;;;;;;;;;;;;;;;;;2203456;67;1110;-74
2022/07/14 06:57:47;;;;;;;;;;;;;;;;;;2202173;67;4133;-73
2022/07/14 07:00:20;;;;;;;;;;;;;;;;;;2202711;59;1193;-74
2022/07/14 07:02:56;;;;;;;;;;;;;;;;;;2202749;59;1934;-74
2022/07/14 07:08:18;;;;;;;;;;;;;;;;;;2202446;67;1212;-74
2022/07/14 07:10:51;;;;;;;;;;;;;;;;;;2202063;59;1380;-74
2022/07/14 07:13:24;;;;;;;;;;;;;;;;;;2202549;59;1283;-74
2022/07/14 07:15:57;;;;;;;;;;;;;;;;;;2203468;67;1122;-73
2022/07/14 07:18:33;;;;;;;;;;;;;;;;;;2202141;67;1248;-74
2022/07/14 07:21:07;;;;;;;;;;;;;;;;;;2203040;67;1292;-73
2022/07/14 07:23:44;;;;;;;;;;;;;;;;;;2202713;59;1913;-74
2022/07/14 07:26:20;;;;;;;;;;;;;;;;;;2203726;67;1152;-74
2022/07/14 07:28:54;;;;;;;;;;;;;;;;;;2203524;67;1237;-73
2022/07/14 07:31:28;;;;;;;;;;;;;;;;;;2202265;67;1185;-74
2022/07/14 07:34:04;;;;;;;;;;;;;;;;;;2203218;67;1085;-74
2022/07/14 07:36:37;;;;;;;;;;;;;;;;;;2202734;67;1174;-74
2022/07/14 07:39:10;;;;;;;;;;;;;;;;;;2202241;67;1251;-73
2022/07/14 07:41:43;;;;;;;;;;;;;;;;;;2202724;59;1977;-74
2022/07/14 07:44:16;;;;;;;;;;;;;;;;;;2203197;67;1920;-74
2022/07/14 07:46:49;;;;;;;;;;;;;;;;;;2202091;59;1178;-74
2022/07/14 07:49:25;;;;;;;;;;;;;;;;;;2202488;67;1239;-74
2022/07/14 07:52:00;;;;;;;;;;;;;;;;;;2202628;67;1205;-74
2022/07/14 07:54:33;;;;;;;;;;;;;;;;;;2202633;59;1181;-74
2022/07/14 07:57:06;;;;;;;;;;;;;;;;;;2203171;67;1272;-74
2022/07/14 07:59:40;;;;;;;;;;;;;;;;;;2202631;59;1254;-74
2022/07/14 08:02:13;;;;;;;;;;;;;;;;;;2202767;67;1147;-75
2022/07/14 08:04:49;;;;;;;;;;;;;;;;;;2202620;59;1918;-74
2022/07/14 08:07:22;;;;;;;;;;;;;;;;;;2203091;67;1166;-74
2022/07/14 08:09:55;;;;;;;;;;;;;;;;;;2202409;67;1258;-74
2022/07/14 08:12:28;;;;;;;;;;;;;;;;;;2202461;59;1380;-74
2022/07/14 08:15:01;;;;;;;;;;;;;;;;;;2202771;67;1232;-74
2022/07/14 08:17:34;;;;;;;;;;;;;;;;;;2202257;67;1244;-74
2022/07/14 08:20:12;;;;;;;;;;;;;;;;;;2203642;67;1203;-74
2022/07/14 08:22:45;;;;;;;;;;;;;;;;;;2203561;59;2152;-74
2022/07/14 08:25:18;;;;;;;;;;;;;;;;;;2203351;59;1945;-74
2022/07/14 08:27:51;;;;;;;;;;;;;;;;;;2199731;67;1307;-74
2022/07/14 08:30:25;;;;;;;;;;;;;;;;;;2200504;59;2041;-75
2022/07/14 08:32:58;;;;;;;;;;;;;;;;;;2203390;59;1521;-74
2022/07/14 08:35:35;;;;;;;;;;;;;;;;;;2204140;59;1097;-74
2022/07/14 08:38:08;;;;;;;;;;;;;;;;;;2203199;67;1251;-74
2022/07/14 08:40:41;;;;;;;;;;;;;;;;;;2203648;59;1435;-75
2022/07/14 08:43:16;;;;;;;;;;;;;;;;;;2203504;67;1976;-74
2022/07/14 08:45:49;;;;;;;;;;;;;;;;;;2203462;67;1234;-74
2022/07/14 08:48:23;;;;;;;;;;;;;;;;;;2203430;67;1217;-74
2022/07/14 08:50:59;;;;;;;;;;;;;;;;;;2203582;59;1488;-75
2022/07/14 08:53:33;;;;;;;;;;;;;;;;;;2202976;59;6793;-75
2022/07/14 08:56:07;;;;;;;;;;;;;;;;;;2203978;67;1115;-74
2022/07/14 08:58:40;;;;;;;;;;;;;;;;;;2203173;59;1491;-75
2022/07/14 09:01:13;;;;;;;;;;;;;;;;;;2203678;59;1212;-75
2022/07/14 09:03:46;;;;;;;;;;;;;;;;;;2203192;59;1929;-74
2022/07/14 09:06:38;;;;;;;;;;;;;;;;;;2203433;59;1380;-74
2022/07/14 09:09:16;;;;;;;;;;;;;;;;;;2202799;67;1291;-74
2022/07/14 09:11:54;;;;;;;;;;;;;;;;;;2203089;59;1332;-74
2022/07/14 09:14:28;;;;;;;;;;;;;;;;;;2203468;67;1972;-74
2022/07/14 09:17:15;;;;;;;;;;;;;;;;;;2203385;67;1206;-74
2022/07/14 09:20:06;;;;;;;;;;;;;;;;;;2202420;67;1258;-74
2022/07/14 09:22:41;;;;;;;;;;;;;;;;;;2203120;67;1072;-74
2022/07/14 09:25:18;;;;;;;;;;;;;;;;;;2203146;67;1178;-74
2022/07/14 09:27:51;;;;;;;;;;;;;;;;;;2202683;59;1244;-74
2022/07/14 09:30:25;;;;;;;;;;;;;;;;;;2203024;59;2081;-75
2022/07/14 09:32:58;;;;;;;;;;;;;;;;;;2202921;59;1495;-74
2022/07/14 09:35:41;;;;;;;;;;;;;;;;;;2202111;67;1940;-74
2022/07/14 09:38:19;;;;;;;;;;;;;;;;;;2202191;67;1245;-75
2022/07/14 09:41:10;;;;;;;;;;;;;;;;;;2202056;67;1126;-77
2022/07/14 09:44:04;;;;;;;;;;;;;;;;;;2202820;59;1149;-75
2022/07/14 09:46:48;;;;;;;;;;;;;;;;;;2202996;67;1159;-74
2022/07/14 09:49:23;;;;;;;;;;;;;;;;;;2202767;59;1275;-75
2022/07/14 09:51:57;;;;;;;;;;;;;;;;;;2202923;67;1073;-74
2022/07/14 09:54:47;;;;;;;;;;;;;;;;;;2204092;59;1921;-75
2022/07/14 09:57:26;;;;;;;;;;;;;;;;;;2203635;67;1226;-75
2022/07/14 10:00:00;;;;;;;;;;;;;;;;;;2211853;53;2055;-65
2022/07/14 10:02:33;;;;;;;;;;;;;;;;;;2206749;67;1201;-65
2022/07/14 10:05:07;;;;;;;;;;;;;;;;;;2206066;67;1198;-65
2022/07/14 10:07:41;;;;;;;;;;;;;;;;;;2206548;67;1141;-66
2022/07/14 10:10:16;;;;;;;;;;;;;;;;;;2205620;67;1239;-66
2022/07/14 10:12:52;;;;;;;;;;;;;;;;;;2206924;59;1658;-66
2022/07/14 10:15:26;;;;;;;;;;;;;;;;;;2206843;67;1988;-65
2022/07/14 10:28:43;;;;;;;;;;;;;;;;;;2349651;53;1908;-59
2022/07/14 10:31:23;;;;;;;;;;;;;;;;;;2207266;59;2354;-56
2022/07/14 10:34:01;;;;;;;;;;;;;;;;;;2206769;59;1996;-59
2022/07/14 10:36:37;;;;;;;;;;;;;;;;;;2206597;67;1147;-58
2022/07/14 10:39:13;;;;;;;;;;;;;;;;;;2206286;59;1262;-57
2022/07/14 10:41:53;;;;;;;;;;;;;;;;;;2206095;67;1134;-56
2022/07/14 10:44:31;;;;;;;;;;;;;;;;;;2206565;67;1311;-59
2022/07/14 10:47:08;;;;;;;;;;;;;;;;;;2205810;59;1654;-55
2022/07/14 10:50:00;;;;;;;;;;;;;;;;;;2203493;59;1761;-56
2022/07/14 10:52:36;;;;;;;;;;;;;;;;;;2206291;59;1438;-58
2022/07/14 10:55:27;;;;;;;;;;;;;;;;;;2206594;59;1935;-56
2022/07/14 10:58:20;;;;;;;;;;;;;;;;;;2206211;67;1599;-58
2022/07/14 11:01:04;;;;;;;;;;;;;;;;;;2202923;67;1821;-55
2022/07/14 11:03:49;;;;;;;;;;;;;;;;;;2206468;59;1207;-59
2022/07/14 11:06:23;;;;;;;;;;;;;;;;;;2206776;67;1240;-60
2022/07/14 11:09:26;;;;;;;;;;;;;;;;;;2206532;67;1272;-56
2022/07/14 11:12:10;;;;;;;;;;;;;;;;;;2197383;59;1398;-57
2022/07/14 11:14:43;;;;;;;;;;;;;;;;;;2205029;67;1936;-56
2022/07/14 11:17:40;;;;;;;;;;;;;;;;;;2206277;67;1758;-57
2022/07/14 11:20:13;;;;;;;;;;;;;;;;;;2206073;67;1223;-56
2022/07/14 11:23:06;;;;;;;;;;;;;;;;;;2206165;59;1666;-57
2022/07/14 11:25:40;;;;;;;;;;;;;;;;;;2206325;67;2340;-57
2022/07/14 11:28:34;;;;;;;;;;;;;;;;;;2206292;59;1202;-58
2022/07/14 11:31:13;;;;;;;;;;;;;;;;;;2206293;59;1486;-63
2022/07/14 11:36:39;;;;;;;;;;;;;;;;;;2206429;67;1105;-56
2022/07/14 11:39:23;;;;;;;;;;;;;;;;;;2205941;67;1216;-57
2022/07/14 11:42:07;;;;;;;;;;;;;;;;;;2206413;67;1275;-56
2022/07/14 11:44:46;;;;;;;;;;;;;;;;;;2207025;67;1063;-56
2022/07/14 11:47:21;;;;;;;;;;;;;;;;;;2206525;67;1208;-55
2022/07/14 11:50:07;;;;;;;;;;;;;;;;;;2206859;67;1219;-57
2022/07/14 11:52:41;;;;;;;;;;;;;;;;;;2205879;67;1118;-61
2022/07/14 11:55:15;;;;;;;;;;;;;;;;;;2206684;59;1933;-60
2022/07/14 11:57:51;;;;;;;;;;;;;;;;;;2206264;67;1096;-55
2022/07/14 12:00:25;;;;;;;;;;;;;;;;;;2207049;67;1197;-55
2022/07/14 12:02:59;;;;;;;;;;;;;;;;;;2206376;59;1277;-56
2022/07/14 12:05:35;;;;;;;;;;;;;;;;;;2206309;59;1282;-56
2022/07/14 12:08:08;;;;;;;;;;;;;;;;;;2205887;67;1180;-58
2022/07/14 12:10:42;;;;;;;;;;;;;;;;;;2206099;59;1404;-56
2022/07/14 12:13:15;;;;;;;;;;;;;;;;;;2206340;59;1329;-55
2022/07/14 12:15:49;;;;;;;;;;;;;;;;;;2206266;67;1992;-57
2022/07/14 12:18:22;;;;;;;;;;;;;;;;;;2206120;67;1252;-57
2022/07/14 12:21:01;;;;;;;;;;;;;;;;;;2206363;67;1209;-56
2022/07/14 12:23:35;;;;;;;;;;;;;;;;;;2206273;67;1141;-57
2022/07/14 12:26:08;;;;;;;;;;;;;;;;;;2206304;67;1176;-55
2022/07/14 12:28:41;;;;;;;;;;;;;;;;;;2206756;59;1197;-60
2022/07/14 12:31:14;;;;;;;;;;;;;;;;;;2206239;59;2105;-55
2022/07/14 12:33:48;;;;;;;;;;;;;;;;;;2207540;67;1173;-56
2022/07/14 12:36:26;;;;;;;;;;;;;;;;;;2205780;67;1981;-58
2022/07/14 12:39:00;;;;;;;;;;;;;;;;;;2206117;67;1185;-56
2022/07/14 12:41:33;;;;;;;;;;;;;;;;;;2205068;67;1054;-55
2022/07/14 12:44:09;;;;;;;;;;;;;;;;;;2207200;67;1241;-60
2022/07/14 12:46:42;;;;;;;;;;;;;;;;;;2207639;67;1033;-58
2022/07/14 12:49:15;;;;;;;;;;;;;;;;;;2207758;67;1210;-56
2022/07/14 12:51:56;;;;;;;;;;;;;;;;;;2206564;67;1074;-56
2022/07/14 12:54:34;;;;;;;;;;;;;;;;;;2205617;67;1132;-58
2022/07/14 12:57:08;;;;;;;;;;;;;;;;;;2206224;67;1107;-55
2022/07/14 12:59:41;;;;;;;;;;;;;;;;;;2206016;67;1176;-55
2022/07/14 13:02:21;;;;;;;;;;;;;;;;;;2205819;67;1307;-56
2022/07/14 13:04:54;;;;;;;;;;;;;;;;;;2206310;59;1304;-57
2022/07/14 13:07:32;;;;;;;;;;;;;;;;;;2207242;67;1168;-58
2022/07/14 13:10:14;;;;;;;;;;;;;;;;;;2207003;67;1266;-55
2022/07/14 13:12:49;;;;;;;;;;;;;;;;;;2206364;59;1665;-56
2022/07/14 13:15:24;;;;;;;;;;;;;;;;;;2207373;67;1925;-58
2022/07/14 13:17:58;;;;;;;;;;;;;;;;;;2206959;67;1290;-58
2022/07/14 13:20:50;;;;;;;;;;;;;;;;;;2206743;67;1079;-58
2022/07/14 13:23:27;;;;;;;;;;;;;;;;;;2206531;67;1282;-63
2022/07/14 13:26:02;;;;;;;;;;;;;;;;;;2207359;67;1124;-55
2022/07/14 13:28:37;;;;;;;;;;;;;;;;;;2206824;59;1225;-61
2022/07/14 13:31:12;;;;;;;;;;;;;;;;;;2206150;59;2074;-57
2022/07/14 13:33:46;;;;;;;;;;;;;;;;;;2206639;67;1202;-55
2022/07/14 13:36:20;;;;;;;;;;;;;;;;;;2206635;67;1996;-57
2022/07/14 13:38:56;;;;;;;;;;;;;;;;;;2206102;67;1257;-56
2022/07/14 13:41:30;;;;;;;;;;;;;;;;;;2203430;67;1561;-57
2022/07/14 13:44:03;;;;;;;;;;;;;;;;;;2206587;67;1211;-55
2022/07/14 13:46:36;;;;;;;;;;;;;;;;;;2206459;59;1101;-56
2022/07/14 13:49:10;;;;;;;;;;;;;;;;;;2206381;67;1211;-58
2022/07/14 13:54:35;;;;;;;;;;;;;;;;;;2206687;59;1386;-55
2022/07/14 13:57:09;;;;;;;;;;;;;;;;;;2206379;67;1940;-60
2022/07/14 13:59:42;;;;;;;;;;;;;;;;;;2206570;67;1191;-58
2022/07/14 14:02:15;;;;;;;;;;;;;;;;;;2206246;67;1164;-58
2022/07/14 14:04:48;;;;;;;;;;;;;;;;;;2206437;59;1213;-55
2022/07/14 14:07:22;;;;;;;;;;;;;;;;;;2206631;67;1286;-56
2022/07/14 14:09:57;;;;;;;;;;;;;;;;;;2206276;67;1724;-56
2022/07/14 14:12:31;;;;;;;;;;;;;;;;;;2206338;59;1660;-55
2022/07/14 14:15:05;;;;;;;;;;;;;;;;;;2206199;67;1935;-56
2022/07/14 14:17:39;;;;;;;;;;;;;;;;;;2206384;67;1133;-62
2022/07/14 14:20:12;;;;;;;;;;;;;;;;;;2206550;67;1287;-58
2022/07/14 14:22:45;;;;;;;;;;;;;;;;;;2206577;67;1145;-55
2022/07/14 14:25:21;;;;;;;;;;;;;;;;;;2206198;67;1918;-62
2022/07/14 14:27:55;;;;;;;;;;;;;;;;;;2206806;67;1225;-56
2022/07/14 14:30:28;;;;;;;;;;;;;;;;;;2206826;59;2240;-55
2022/07/14 14:33:01;;;;;;;;;;;;;;;;;;2207489;59;1359;-58
2022/07/14 14:35:34;;;;;;;;;;;;;;;;;;2207653;67;1928;-55
2022/07/14 14:38:08;;;;;;;;;;;;;;;;;;2206473;67;1205;-58
2022/07/14 14:40:44;;;;;;;;;;;;;;;;;;2206396;67;1080;-59
2022/07/14 14:43:17;;;;;;;;;;;;;;;;;;2207464;67;1106;-57
2022/07/14 14:45:51;;;;;;;;;;;;;;;;;;2206283;67;1305;-56
2022/07/14 14:48:24;;;;;;;;;;;;;;;;;;2206286;67;1180;-57
2022/07/14 14:50:57;;;;;;;;;;;;;;;;;;2206789;67;1258;-57
2022/07/14 14:53:30;;;;;;;;;;;;;;;;;;2206492;67;1184;-56
2022/07/14 14:56:07;;;;;;;;;;;;;;;;;;2206307;67;1926;-57
2022/07/14 14:58:40;;;;;;;;;;;;;;;;;;2206474;67;1197;-61
2022/07/14 15:01:13;;;;;;;;;;;;;;;;;;2205986;67;1245;-57
2022/07/14 15:03:47;;;;;;;;;;;;;;;;;;2206983;59;1435;-56
2022/07/14 15:06:20;;;;;;;;;;;;;;;;;;2207116;67;1179;-55
2022/07/14 15:08:53;;;;;;;;;;;;;;;;;;2206804;67;1235;-60
2022/07/14 15:11:29;;;;;;;;;;;;;;;;;;2205893;59;1449;-56
2022/07/14 15:14:02;;;;;;;;;;;;;;;;;;2206836;67;1214;-57
2022/07/14 15:16:36;;;;;;;;;;;;;;;;;;2206326;67;1925;-56
2022/07/14 15:19:10;;;;;;;;;;;;;;;;;;2206468;67;1595;-56
2022/07/14 15:21:43;;;;;;;;;;;;;;;;;;2206584;67;1114;-57
2022/07/14 15:24:16;;;;;;;;;;;;;;;;;;2206148;67;1150;-55
2022/07/14 15:26:52;;;;;;;;;;;;;;;;;;2206936;67;1093;-56
2022/07/14 15:29:26;;;;;;;;;;;;;;;;;;2202557;59;1328;-57
2022/07/14 15:32:00;;;;;;;;;;;;;;;;;;2206060;59;1936;-56
2022/07/14 15:34:34;;;;;;;;;;;;;;;;;;2206000;67;1183;-56
2022/07/14 15:37:07;;;;;;;;;;;;;;;;;;2205528;67;1979;-58
2022/07/14 15:42:32;;;;;;;;;;;;;;;;;;2206352;67;1129;-55
2022/07/14 15:45:06;;;;;;;;;;;;;;;;;;2205530;67;1117;-56
2022/07/14 15:47:39;;;;;;;;;;;;;;;;;;2206112;59;1298;-57
2022/07/14 15:50:12;;;;;;;;;;;;;;;;;;2205668;67;1270;-57
2022/07/14 15:52:45;;;;;;;;;;;;;;;;;;2206198;67;1159;-60
2022/07/14 15:55:19;;;;;;;;;;;;;;;;;;2206257;67;1114;-57
2022/07/14 15:57:54;;;;;;;;;;;;;;;;;;2206327;67;1929;-56
2022/07/14 16:00:28;;;;;;;;;;;;;;;;;;2205907;67;1312;-57
2022/07/14 16:03:01;;;;;;;;;;;;;;;;;;2206166;67;1254;-57
2022/07/14 16:05:34;;;;;;;;;;;;;;;;;;2206387;67;1267;-56
2022/07/14 16:08:09;;;;;;;;;;;;;;;;;;2205505;67;1275;-57
2022/07/14 16:10:42;;;;;;;;;;;;;;;;;;2206485;59;1436;-58
2022/07/14 16:13:18;;;;;;;;;;;;;;;;;;2205988;59;1158;-58
2022/07/14 16:15:51;;;;;;;;;;;;;;;;;;2206127;67;1944;-56
2022/07/14 16:18:24;;;;;;;;;;;;;;;;;;2205886;67;1188;-56
2022/07/14 16:20:58;;;;;;;;;;;;;;;;;;2206414;67;1168;-56
2022/07/14 16:23:31;;;;;;;;;;;;;;;;;;2206250;67;1196;-58
2022/07/14 16:26:05;;;;;;;;;;;;;;;;;;2205577;67;1084;-55
2022/07/14 16:39:21;;;;;;;;;;;;;;;;;;2313395;53;2111;-64
2022/07/14 16:41:56;;;;;;;;;;;;;;;;;;2206772;59;1227;-66
2022/07/14 16:44:29;;;;;;;;;;;;;;;;;;2206156;67;1769;-64
2022/07/14 16:47:02;;;;;;;;;;;;;;;;;;2206069;67;1092;-63
2022/07/14 16:49:35;;;;;;;;;;;;;;;;;;2206691;59;1429;-63
2022/07/14 16:52:08;;;;;;;;;;;;;;;;;;2206156;67;1184;-66
2022/07/14 16:54:44;;;;;;;;;;;;;;;;;;2206120;67;1239;-66
2022/07/14 16:57:17;;;;;;;;;;;;;;;;;;2206747;59;1932;-64
2022/07/14 16:59:51;;;;;;;;;;;;;;;;;;2205686;67;1285;-65
2022/07/14 17:02:24;;;;;;;;;;;;;;;;;;2205736;67;1202;-65
2022/07/14 17:04:57;;;;;;;;;;;;;;;;;;2206204;67;1328;-65
2022/07/14 17:07:31;;;;;;;;;;;;;;;;;;2206190;67;1222;-65
2022/07/14 17:10:07;;;;;;;;;;;;;;;;;;2205828;67;1250;-66
2022/07/14 17:12:40;;;;;;;;;;;;;;;;;;2206178;59;1218;-66
2022/07/14 17:15:14;;;;;;;;;;;;;;;;;;2206463;59;1472;-66
2022/07/14 17:17:47;;;;;;;;;;;;;;;;;;2206093;59;1935;-66
2022/07/14 17:20:20;;;;;;;;;;;;;;;;;;2206392;67;1236;-66
2022/07/14 17:22:53;;;;;;;;;;;;;;;;;;2206226;67;1169;-65
2022/07/14 17:25:29;;;;;;;;;;;;;;;;;;2205922;67;1235;-65
2022/07/14 17:28:02;;;;;;;;;;;;;;;;;;2206016;67;1128;-65
2022/07/14 17:30:35;;;;;;;;;;;;;;;;;;2206272;59;2002;-65
2022/07/14 17:33:09;;;;;;;;;;;;;;;;;;2206586;59;1421;-66
2022/07/14 17:35:42;;;;;;;;;;;;;;;;;;2206881;67;982;-65
2022/07/14 17:38:15;;;;;;;;;;;;;;;;;;2206155;59;1933;-66
2022/07/14 17:40:52;;;;;;;;;;;;;;;;;;2207048;67;1089;-66
2022/07/14 17:43:26;;;;;;;;;;;;;;;;;;2206713;67;1116;-65
2022/07/14 17:46:00;;;;;;;;;;;;;;;;;;2206624;67;1219;-65
2022/07/14 17:48:33;;;;;;;;;;;;;;;;;;2206183;67;1219;-65
2022/07/14 17:53:55;;;;;;;;;;;;;;;;;;2206734;67;1167;-66
2022/07/14 17:56:31;;;;;;;;;;;;;;;;;;2206420;67;1929;-66
2022/07/14 17:59:06;;;;;;;;;;;;;;;;;;2206269;67;1164;-64
2022/07/14 18:01:39;;;;;;;;;;;;;;;;;;2206272;67;1098;-65
2022/07/14 18:04:12;;;;;;;;;;;;;;;;;;2206356;59;1264;-66
2022/07/14 18:06:45;;;;;;;;;;;;;;;;;;2206411;67;1071;-65
2022/07/14 18:09:19;;;;;;;;;;;;;;;;;;2206347;67;1254;-65
2022/07/14 18:11:55;;;;;;;;;;;;;;;;;;2206327;59;1241;-66
2022/07/14 18:14:28;;;;;;;;;;;;;;;;;;2205920;59;1206;-65
2022/07/14 18:17:01;;;;;;;;;;;;;;;;;;2206115;67;1923;-66
2022/07/14 18:19:35;;;;;;;;;;;;;;;;;;2206078;67;1147;-65
2022/07/14 18:22:08;;;;;;;;;;;;;;;;;;2205465;67;1193;-65
2022/07/14 18:24:41;;;;;;;;;;;;;;;;;;2206012;67;1256;-63
2022/07/14 18:27:17;;;;;;;;;;;;;;;;;;2206703;67;1271;-65
2022/07/14 18:29:50;;;;;;;;;;;;;;;;;;2205498;67;1310;-65
2022/07/14 18:32:23;;;;;;;;;;;;;;;;;;2205989;59;2027;-65
2022/07/14 18:34:57;;;;;;;;;;;;;;;;;;2206007;67;1220;-65
2022/07/14 18:37:30;;;;;;;;;;;;;;;;;;2205424;67;1931;-65
2022/07/14 18:40:03;;;;;;;;;;;;;;;;;;2205931;59;1196;-63
2022/07/14 18:42:40;;;;;;;;;;;;;;;;;;2205545;67;1104;-64
2022/07/14 18:48:02;;;;;;;;;;;;;;;;;;2205886;67;1131;-65
2022/07/14 18:50:38;;;;;;;;;;;;;;;;;;2205035;67;1169;-65